Time,TemperatureF,DewpointF,PressureIn,WindDirection,WindDirectionDegrees,WindSpeedMPH,WindSpeedGustMPH,Humidity,HourlyPrecipIn,Conditions,Clouds,dailyrainin,SolarRadiationWatts/m^2,SoftwareType,DateUTC
2013-02-23 00:00:00,69.8,66.7,30.03,ESE,115,0.0,1.0,90,0.00,,---,0.00,0.00,VWS V14.00,2013-02-23 05:00:00,
2013-02-23 00:30:00,69.6,66.9,30.02,ESE,115,0.0,1.0,91,0.00,,---,0.00,0.00,VWS V14.00,2013-02-23 05:30:00,
2013-02-23 01:00:00,69.4,66.7,30.02,ESE,115,0.0,3.0,91,0.00,,---,0.00,0.00,VWS V14.00,2013-02-23 06:00:00,
2013-02-23 01:30:00,69.4,67.0,30.01,ESE,115,0.0,2.0,92,0.00,,---,0.00,0.00,VWS V14.00,2013-02-23 06:30:00,
2013-02-23 02:00:00,69.0,66.3,30.00,ESE,115,0.0,0.0,91,0.00,,---,0.00,0.00,VWS V14.00,2013-02-23 07:00:00,
2013-02-23 02:30:00,68.0,65.3,29.99,ESE,115,0.0,0.0,91,0.00,,---,0.00,0.00,VWS V14.00,2013-02-23 07:30:00,
2013-02-23 03:00:00,67.5,64.8,29.98,ESE,115,0.0,0.0,91,0.00,,---,0.00,0.00,VWS V14.00,2013-02-23 08:00:00,
2013-02-23 03:30:00,67.7,65.3,29.98,ESE,115,0.0,1.0,92,0.00,,---,0.00,0.00,VWS V14.00,2013-02-23 08:30:00,
2013-02-23 04:00:00,67.4,65.0,29.98,ESE,115,0.0,0.0,92,0.00,,---,0.00,0.00,VWS V14.00,2013-02-23 09:00:00,
2013-02-23 04:30:00,66.7,64.3,29.98,ESE,115,0.0,0.0,92,0.00,,---,0.00,0.00,VWS V14.00,2013-02-23 09:30:00,
2013-02-23 05:00:00,66.4,64.0,29.99,ESE,115,0.0,0.0,92,0.00,,---,0.00,0.00,VWS V14.00,2013-02-23 10:00:00,
2013-02-23 05:30:00,66.7,64.3,29.99,ESE,115,0.0,0.0,92,0.00,,---,0.00,0.00,VWS V14.00,2013-02-23 10:30:00,
2013-02-23 06:00:00,66.4,64.0,29.99,ESE,115,0.0,0.0,92,0.00,,---,0.00,0.00,VWS V14.00,2013-02-23 11:00:00,
2013-02-23 06:30:00,66.7,64.3,30.00,ESE,115,0.0,1.0,92,0.00,,---,0.00,0.00,VWS V14.00,2013-02-23 11:30:00,
2013-02-23 07:00:00,66.8,64.4,30.00,ESE,115,0.0,2.0,92,0.00,,---,0.00,47.00,VWS V14.00,2013-02-23 12:00:00,
2013-02-23 07:30:00,67.8,65.4,30.00,ESE,115,1.0,6.0,92,0.00,,---,0.00,137.00,VWS V14.00,2013-02-23 12:30:00,
2013-02-23 08:00:00,69.8,67.4,30.01,ESE,121,1.0,6.0,92,0.00,,---,0.00,236.00,VWS V14.00,2013-02-23 13:00:00,
2013-02-23 08:30:00,72.6,70.2,30.02,SSE,154,6.0,8.0,92,0.00,,---,0.00,343.00,VWS V14.00,2013-02-23 13:30:00,
2013-02-23 09:00:00,76.3,71.5,30.01,South,170,3.0,11.0,85,0.00,,---,0.00,376.00,VWS V14.00,2013-02-23 14:00:00,
2013-02-23 09:30:00,78.9,70.7,30.01,SE,125,9.0,12.0,76,0.00,,---,0.00,538.00,VWS V14.00,2013-02-23 14:30:00,
2013-02-23 10:00:00,79.8,70.0,30.01,South,175,8.0,15.0,72,0.00,,---,0.00,666.00,VWS V14.00,2013-02-23 15:00:00,
2013-02-23 10:30:00,79.7,68.2,30.01,South,174,6.0,12.0,68,0.00,,---,0.00,181.00,VWS V14.00,2013-02-23 15:30:00,
2013-02-23 11:00:00,82.1,69.6,29.99,South,180,0.0,11.0,66,0.00,,---,0.00,809.00,VWS V14.00,2013-02-23 16:00:00,
2013-02-23 11:30:00,84.3,69.4,29.98,SSE,148,5.0,13.0,61,0.00,,---,0.00,854.00,VWS V14.00,2013-02-23 16:30:00,
2013-02-23 12:00:00,85.2,69.8,29.97,SSE,160,3.0,14.0,60,0.00,,---,0.00,789.00,VWS V14.00,2013-02-23 17:00:00,
2013-02-23 12:30:00,85.3,68.3,29.95,South,180,4.0,16.0,57,0.00,,---,0.00,148.00,VWS V14.00,2013-02-23 17:30:00,
2013-02-23 13:00:00,86.1,69.1,29.95,SSE,167,2.0,11.0,57,0.00,,---,0.00,838.00,VWS V14.00,2013-02-23 18:00:00,
2013-02-23 13:30:00,85.8,69.3,29.93,South,171,1.0,13.0,58,0.00,,---,0.00,773.00,VWS V14.00,2013-02-23 18:30:00,
2013-02-23 14:00:00,87.3,67.0,29.92,South,175,3.0,11.0,51,0.00,,---,0.00,686.00,VWS V14.00,2013-02-23 19:00:00,
2013-02-23 14:30:00,87.4,67.6,29.91,SSE,165,1.0,9.0,52,0.00,,---,0.00,172.00,VWS V14.00,2013-02-23 19:30:00,
2013-02-23 15:00:00,84.6,66.7,29.90,SSE,156,2.0,7.0,55,0.00,,---,0.00,708.00,VWS V14.00,2013-02-23 20:00:00,
2013-02-23 15:30:00,84.1,67.2,29.89,SSE,167,1.0,7.0,57,0.00,,---,0.00,98.00,VWS V14.00,2013-02-23 20:30:00,
2013-02-23 16:00:00,84.5,67.6,29.89,SSE,161,3.0,8.0,57,0.00,,---,0.00,341.00,VWS V14.00,2013-02-23 21:00:00,
2013-02-23 16:30:00,84.5,68.1,29.88,SSE,159,1.0,8.0,58,0.00,,---,0.00,90.00,VWS V14.00,2013-02-23 21:30:00,
2013-02-23 17:00:00,83.7,67.9,29.88,SSE,161,1.0,6.0,59,0.00,,---,0.00,58.00,VWS V14.00,2013-02-23 22:00:00,
2013-02-23 17:30:00,82.7,67.9,29.88,SSE,158,0.0,6.0,61,0.00,,---,0.00,47.00,VWS V14.00,2013-02-23 22:30:00,
2013-02-23 18:00:00,81.2,67.4,29.89,SSE,158,0.0,4.0,63,0.00,,---,0.00,0.00,VWS V14.00,2013-02-23 23:00:00,
2013-02-23 18:30:00,79.4,67.5,29.89,SSE,158,0.0,1.0,67,0.00,,---,0.00,0.00,VWS V14.00,2013-02-23 23:30:00,
2013-02-23 19:00:00,73.8,69.0,29.91,SW,215,1.0,11.0,85,0.04,,---,0.23,0.00,VWS V14.00,2013-02-24 00:00:00,
2013-02-23 19:30:00,72.6,69.2,29.92,SW,215,0.0,3.0,89,0.00,,---,0.23,0.00,VWS V14.00,2013-02-24 00:30:00,
2013-02-23 20:00:00,72.5,69.4,29.92,SW,214,0.0,0.0,90,0.00,,---,0.23,0.00,VWS V14.00,2013-02-24 01:00:00,
2013-02-23 20:30:00,71.7,68.9,29.93,SW,214,0.0,1.0,91,0.00,,---,0.23,0.00,VWS V14.00,2013-02-24 01:30:00,
2013-02-23 21:00:00,71.2,68.4,29.93,SW,215,0.0,1.0,91,0.00,,---,0.23,0.00,VWS V14.00,2013-02-24 02:00:00,
2013-02-23 21:30:00,71.0,68.2,29.94,SW,214,0.0,1.0,91,0.00,,---,0.23,0.00,VWS V14.00,2013-02-24 02:30:00,
2013-02-23 22:00:00,70.7,67.9,29.94,SW,215,0.0,2.0,91,0.00,,---,0.23,0.00,VWS V14.00,2013-02-24 03:00:00,
2013-02-23 22:30:00,70.7,67.9,29.94,SW,214,0.0,3.0,91,0.00,,---,0.23,0.00,VWS V14.00,2013-02-24 03:30:00,
2013-02-23 23:00:00,70.7,67.9,29.94,SW,215,0.0,4.0,91,0.00,,---,0.23,0.00,VWS V14.00,2013-02-24 04:00:00,
2013-02-23 23:30:00,70.4,67.7,29.94,SSW,213,0.0,7.0,91,0.00,,---,0.23,0.00,VWS V14.00,2013-02-24 04:30:00,